createdAt,value
2022-09-07T00:01:26.893Z,3.30
2022-09-07T00:03:59.649Z,3.30
2022-09-07T00:06:31.190Z,3.50
2022-09-07T00:09:02.506Z,3.80
2022-09-07T00:11:33.612Z,3.40
2022-09-07T00:14:05.693Z,3.10
2022-09-07T00:16:36.794Z,3.40
2022-09-07T00:19:08.056Z,3.20
2022-09-07T00:21:39.355Z,3.40
2022-09-07T00:24:10.844Z,3.40
2022-09-07T00:26:41.813Z,3.40
2022-09-07T00:29:12.973Z,3.00
2022-09-07T00:31:44.016Z,3.10
2022-09-07T00:34:15.095Z,3.40
2022-09-07T00:36:46.089Z,3.00
2022-09-07T00:39:17.108Z,3.10
2022-09-07T00:41:48.026Z,3.20
2022-09-07T00:44:49.531Z,3.10
2022-09-07T00:47:24.518Z,2.80
2022-09-07T00:50:01.209Z,3.20
2022-09-07T00:52:34.797Z,3.10
2022-09-07T00:55:11.540Z,3.30
2022-09-07T00:57:46.973Z,3.00
2022-09-07T01:00:18.155Z,3.10
2022-09-07T01:02:52.289Z,3.90
2022-09-07T01:05:27.649Z,3.10
2022-09-07T01:07:59.686Z,3.30
2022-09-07T01:10:32.852Z,2.90
2022-09-07T01:13:03.997Z,3.00
2022-09-07T01:15:48.910Z,3.20
2022-09-07T01:18:32.888Z,2.80
2022-09-07T01:21:28.367Z,3.00
2022-09-07T01:24:44.269Z,2.90
2022-09-07T01:27:58.729Z,3.40
2022-09-07T01:30:33.006Z,2.80
2022-09-07T01:33:24.187Z,2.90
2022-09-07T01:36:04.499Z,3.00
2022-09-07T01:38:42.556Z,2.30
2022-09-07T01:41:19.438Z,2.90
2022-09-07T01:43:55.735Z,3.30
2022-09-07T01:46:31.306Z,3.20
2022-09-07T01:49:09.469Z,2.70
2022-09-07T01:51:46.516Z,3.70
2022-09-07T01:54:23.652Z,2.90
2022-09-07T01:56:58.889Z,2.90
2022-09-07T02:02:07.004Z,2.50
2022-09-07T02:04:44.656Z,2.50
2022-09-07T02:07:21.891Z,2.90
2022-09-07T02:09:59.128Z,3.10
2022-09-07T02:12:37.229Z,2.80
2022-09-07T02:15:15.781Z,2.80
2022-09-07T02:17:51.483Z,3.20
2022-09-07T02:20:27.997Z,3.30
2022-09-07T02:23:01.823Z,2.90
2022-09-07T02:25:38.510Z,2.90
2022-09-07T02:28:13.645Z,2.90
2022-09-07T02:30:45.361Z,3.10
2022-09-07T02:33:16.651Z,3.30
2022-09-07T02:35:48.230Z,3.50
2022-09-07T02:38:19.542Z,3.10
2022-09-07T02:40:55.297Z,3.60
2022-09-07T02:43:28.915Z,3.20
2022-09-07T02:46:12.576Z,4.00
2022-09-07T02:48:51.516Z,3.40
2022-09-07T02:51:30.460Z,3.50
2022-09-07T02:54:20.866Z,2.90
2022-09-07T02:57:03.410Z,3.40
2022-09-07T02:59:49.513Z,3.90
2022-09-07T03:02:27.839Z,3.00
2022-09-07T03:05:05.015Z,3.80
2022-09-07T03:07:44.126Z,3.30
2022-09-07T03:10:16.152Z,4.10
2022-09-07T03:12:49.078Z,3.50
2022-09-07T03:15:21.960Z,3.50
2022-09-07T03:17:53.055Z,3.10
2022-09-07T03:20:25.303Z,3.10
2022-09-07T03:22:56.434Z,3.30
2022-09-07T03:25:27.788Z,3.70
2022-09-07T03:27:58.862Z,3.30
2022-09-07T03:30:30.409Z,3.40
2022-09-07T03:33:01.751Z,3.20
2022-09-07T03:35:32.757Z,2.90
2022-09-07T03:38:03.844Z,2.90
2022-09-07T03:40:34.802Z,3.30
2022-09-07T03:43:06.033Z,4.70
2022-09-07T03:45:37.062Z,5.90
2022-09-07T03:48:08.778Z,5.50
2022-09-07T03:50:40.123Z,3.30
2022-09-07T03:53:15.730Z,3.20
2022-09-07T03:55:56.395Z,3.50
2022-09-07T03:58:27.313Z,3.60
2022-09-07T04:00:59.312Z,8.60
2022-09-07T04:03:30.350Z,4.40
2022-09-07T04:06:03.577Z,3.20
2022-09-07T04:08:36.759Z,3.20
2022-09-07T04:11:09.962Z,2.80
2022-09-07T04:13:41.645Z,3.30
2022-09-07T04:16:18.246Z,3.00
2022-09-07T04:18:50.738Z,3.00
2022-09-07T04:21:22.290Z,2.90
2022-09-07T04:23:53.990Z,3.50
2022-09-07T04:26:26.736Z,3.60
2022-09-07T04:28:58.352Z,3.40
2022-09-07T04:31:30.106Z,3.30
2022-09-07T04:34:01.053Z,3.20
2022-09-07T04:36:33.686Z,2.90
2022-09-07T04:39:06.510Z,3.70
2022-09-07T04:41:38.182Z,3.50
2022-09-07T04:44:11.722Z,6.70
2022-09-07T04:46:46.279Z,5.10
2022-09-07T04:49:21.735Z,3.70
2022-09-07T04:51:52.780Z,3.60
2022-09-07T04:54:26.499Z,4.00
2022-09-07T04:57:01.888Z,4.10
2022-09-07T04:59:36.010Z,4.00
2022-09-07T05:02:07.467Z,4.80
2022-09-07T05:04:39.141Z,7.90
2022-09-07T05:07:10.173Z,4.10
2022-09-07T05:09:43.921Z,3.60
2022-09-07T05:12:16.456Z,4.20
2022-09-07T05:14:47.440Z,3.50
2022-09-07T05:17:19.356Z,3.60
2022-09-07T05:19:50.662Z,3.90
2022-09-07T05:22:22.557Z,4.40
2022-09-07T05:24:53.704Z,3.60
2022-09-07T05:27:24.609Z,3.40
2022-09-07T05:30:04.307Z,3.80
2022-09-07T05:32:37.959Z,3.30
2022-09-07T05:35:10.120Z,3.40
2022-09-07T05:37:41.662Z,3.30
2022-09-07T05:40:15.607Z,4.10
2022-09-07T05:42:46.717Z,3.90
2022-09-07T05:45:20.177Z,4.30
2022-09-07T05:47:54.425Z,4.40
2022-09-07T05:50:25.389Z,4.10
2022-09-07T05:52:56.624Z,3.60
2022-09-07T05:55:30.420Z,3.80
2022-09-07T05:58:04.899Z,3.60
2022-09-07T06:00:36.329Z,4.30
2022-09-07T06:03:07.816Z,2.90
2022-09-07T06:05:39.023Z,2.90
2022-09-07T06:08:11.324Z,3.20
2022-09-07T06:10:44.530Z,3.10
2022-09-07T06:13:16.603Z,3.20
2022-09-07T06:15:47.752Z,2.70
2022-09-07T06:18:18.957Z,2.80
2022-09-07T06:20:56.226Z,3.00
2022-09-07T06:23:27.308Z,2.90
2022-09-07T06:26:00.671Z,3.00
2022-09-07T06:28:32.896Z,2.90
2022-09-07T06:31:06.228Z,3.50
2022-09-07T06:33:38.230Z,3.70
2022-09-07T06:36:13.217Z,3.30
2022-09-07T06:38:44.639Z,3.80
2022-09-07T06:44:12.605Z,2.30
2022-09-07T06:49:34.806Z,2.60
2022-09-07T06:52:06.332Z,2.40
2022-09-07T06:57:29.834Z,2.10
2022-09-07T07:00:04.742Z,2.60
2022-09-07T07:02:35.964Z,2.00
2022-09-07T07:05:10.626Z,1.90
2022-09-07T07:10:11.817Z,2.30
2022-09-07T07:15:15.312Z,2.10
2022-09-07T07:17:53.163Z,2.20
2022-09-07T07:20:27.198Z,1.80
2022-09-07T07:22:58.275Z,2.00
2022-09-07T07:25:37.706Z,1.90
2022-09-07T07:31:07.208Z,1.90
2022-09-07T07:33:43.712Z,2.20
2022-09-07T07:36:17.546Z,2.00
2022-09-07T07:39:05.622Z,2.20
2022-09-07T07:44:23.440Z,2.00
2022-09-07T07:46:54.377Z,2.70
2022-09-07T07:49:26.121Z,2.30
2022-09-07T07:54:49.788Z,1.50
2022-09-07T07:57:21.212Z,2.10
2022-09-07T07:59:52.147Z,2.30
2022-09-07T08:02:26.568Z,1.50
2022-09-07T08:04:57.510Z,1.90
2022-09-07T08:07:28.541Z,1.50
2022-09-07T08:10:00.540Z,1.10
2022-09-07T08:12:31.673Z,1.10
2022-09-07T08:15:04.695Z,1.80
2022-09-07T08:17:36.652Z,1.10
2022-09-07T08:20:08.837Z,1.60
2022-09-07T08:22:40.111Z,1.30
2022-09-07T08:25:12.624Z,2.10
2022-09-07T08:27:43.999Z,1.90
2022-09-07T08:30:15.389Z,1.60
2022-09-07T08:32:46.235Z,1.40
2022-09-07T08:35:19.985Z,1.60
2022-09-07T08:37:50.940Z,1.40
2022-09-07T08:40:24.050Z,1.60
2022-09-07T08:43:04.915Z,1.90
2022-09-07T08:45:39.560Z,1.90
2022-09-07T08:48:15.712Z,1.80
2022-09-07T08:50:56.479Z,1.50
2022-09-07T08:53:28.320Z,1.40
2022-09-07T08:56:05.073Z,1.20
2022-09-07T08:58:49.253Z,1.30
2022-09-07T09:01:31.922Z,1.20
2022-09-07T09:04:21.461Z,1.00
2022-09-07T09:07:10.649Z,1.50
2022-09-07T09:10:07.298Z,1.10
2022-09-07T09:12:55.390Z,1.30
2022-09-07T09:15:35.124Z,1.40
2022-09-07T09:18:18.538Z,1.30
2022-09-07T09:20:54.738Z,1.40
2022-09-07T09:23:28.832Z,1.60
2022-09-07T09:26:03.334Z,1.20
2022-09-07T09:28:34.778Z,1.50
2022-09-07T09:31:07.099Z,1.10
2022-09-07T09:33:38.325Z,1.50
2022-09-07T09:36:26.981Z,1.40
2022-09-07T09:38:58.393Z,2.10
2022-09-07T09:41:38.402Z,1.40
2022-09-07T09:44:16.149Z,1.40
2022-09-07T09:49:54.237Z,1.50
2022-09-07T09:52:30.540Z,1.60
2022-09-07T09:55:23.531Z,1.30
2022-09-07T10:06:24.940Z,1.30
2022-09-07T10:08:59.215Z,1.40
2022-09-07T10:12:07.141Z,1.40
2022-09-07T10:14:44.791Z,1.40
2022-09-07T10:17:22.372Z,1.10
2022-09-07T10:19:54.265Z,2.40
2022-09-07T10:22:37.416Z,1.60
2022-09-07T10:25:30.903Z,2.20
2022-09-07T10:28:19.681Z,1.40
2022-09-07T10:31:14.779Z,16.40
2022-09-07T10:36:50.147Z,7.70
2022-09-07T10:39:26.265Z,2.40
2022-09-07T10:42:04.254Z,9.10
2022-09-07T10:44:59.202Z,4.70
2022-09-07T10:47:39.347Z,1.90
2022-09-07T10:50:22.540Z,1.60
2022-09-07T10:53:13.384Z,1.40
2022-09-07T10:56:01.271Z,1.20
2022-09-07T11:01:45.699Z,1.40
2022-09-07T11:04:41.576Z,1.40
2022-09-07T11:07:28.863Z,1.30
2022-09-07T11:10:09.320Z,1.60
2022-09-07T11:12:43.496Z,1.10
2022-09-07T11:15:23.819Z,1.40
2022-09-07T11:18:03.034Z,2.00
2022-09-07T11:20:41.548Z,1.40
2022-09-07T11:23:19.824Z,1.40
2022-09-07T11:26:00.275Z,1.50
2022-09-07T11:28:44.645Z,1.60
2022-09-07T11:31:24.498Z,1.50
2022-09-07T11:37:02.152Z,1.80
2022-09-07T11:39:40.671Z,1.20
2022-09-07T11:45:18.271Z,1.40
2022-09-07T11:47:55.484Z,1.30
2022-09-07T11:50:27.769Z,1.60
2022-09-07T11:53:04.913Z,1.40
2022-09-07T11:55:40.213Z,1.20
2022-09-07T11:58:36.392Z,1.40
2022-09-07T12:01:19.070Z,1.50
2022-09-07T12:04:16.866Z,1.30
2022-09-07T12:07:27.287Z,1.30
2022-09-07T12:10:14.378Z,1.50
2022-09-07T12:13:09.061Z,1.40
2022-09-07T12:15:52.736Z,1.30
2022-09-07T12:18:45.357Z,1.30
2022-09-07T12:21:36.067Z,1.50
2022-09-07T12:24:34.561Z,1.40
2022-09-07T12:27:06.914Z,1.30
2022-09-07T12:29:38.593Z,1.20
2022-09-07T12:35:04.236Z,1.30
2022-09-07T12:37:45.681Z,1.10
2022-09-07T12:40:49.041Z,1.00
2022-09-07T12:44:02.011Z,1.20
2022-09-07T12:46:48.459Z,1.20
2022-09-07T12:49:41.106Z,1.00
2022-09-07T12:52:34.313Z,1.40
2022-09-07T12:55:27.858Z,1.20
2022-09-07T12:58:13.460Z,1.10
2022-09-07T13:00:58.157Z,1.50
2022-09-07T13:04:03.704Z,1.60
2022-09-07T13:07:05.313Z,1.20
2022-09-07T13:09:42.166Z,1.10
2022-09-07T13:12:57.115Z,1.10
2022-09-07T13:15:48.613Z,1.30
2022-09-07T13:18:46.445Z,1.40
2022-09-07T13:21:39.685Z,1.40
2022-09-07T13:24:55.300Z,1.10
2022-09-07T13:27:58.973Z,1.70
2022-09-07T13:30:49.442Z,1.10
2022-09-07T13:33:46.194Z,1.60
2022-09-07T13:36:28.771Z,1.50
2022-09-07T13:39:00.918Z,1.50
2022-09-07T13:41:38.241Z,1.50
2022-09-07T13:44:25.804Z,1.40
2022-09-07T13:47:23.871Z,1.00
2022-09-07T13:50:11.605Z,1.40
2022-09-07T13:53:07.224Z,1.30
2022-09-07T13:55:52.765Z,2.50
2022-09-07T13:58:29.730Z,1.50
2022-09-07T14:01:03.509Z,1.60
2022-09-07T14:03:45.912Z,1.60
2022-09-07T14:06:34.463Z,1.50
2022-09-07T14:09:14.159Z,1.70
2022-09-07T14:11:47.992Z,1.30
2022-09-07T14:14:22.260Z,1.50
2022-09-07T14:16:58.873Z,1.50
2022-09-07T14:19:40.052Z,1.20
2022-09-07T14:22:17.242Z,1.20
2022-09-07T14:24:52.754Z,1.60
2022-09-07T14:27:25.941Z,1.20
2022-09-07T14:30:15.369Z,1.30
2022-09-07T14:32:53.729Z,1.50
2022-09-07T14:35:28.591Z,1.80
2022-09-07T14:38:08.038Z,1.50
2022-09-07T14:40:39.915Z,1.20
2022-09-07T14:43:30.940Z,1.40
2022-09-07T14:46:22.368Z,1.60
2022-09-07T14:48:55.583Z,1.80
2022-09-07T14:51:35.495Z,1.60
2022-09-07T14:54:10.599Z,2.60
2022-09-07T14:56:42.713Z,2.20
2022-09-07T14:59:37.312Z,1.80
2022-09-07T15:02:37.904Z,1.40
2022-09-07T15:05:29.900Z,1.30
2022-09-07T15:08:03.284Z,1.60
2022-09-07T15:11:32.960Z,1.30
2022-09-07T15:13:37.291Z,1.60
2022-09-07T15:16:23.328Z,1.40
2022-09-07T15:18:57.639Z,1.10
2022-09-07T15:21:32.189Z,1.80
2022-09-07T15:24:04.248Z,1.60
2022-09-07T15:29:33.150Z,1.40
2022-09-07T15:32:10.565Z,1.70
2022-09-07T15:34:43.344Z,1.20
2022-09-07T15:40:21.709Z,1.60
2022-09-07T15:43:00.660Z,1.10
2022-09-07T15:45:32.315Z,1.30
2022-09-07T15:48:04.466Z,1.50
2022-09-07T15:50:36.193Z,1.30
2022-09-07T15:54:06.642Z,1.30
2022-09-07T15:55:58.728Z,1.50
2022-09-07T15:58:31.933Z,1.40
2022-09-07T16:04:01.716Z,1.40
2022-09-07T16:06:36.403Z,1.00
2022-09-07T16:09:21.738Z,1.60
2022-09-07T16:14:56.394Z,1.30
2022-09-07T16:17:35.747Z,1.50
2022-09-07T16:20:12.856Z,2.00
2022-09-07T16:26:00.391Z,1.60
2022-09-07T16:28:35.413Z,2.10
2022-09-07T16:31:10.346Z,1.70
2022-09-07T16:33:48.212Z,1.90
2022-09-07T16:36:28.999Z,1.80
2022-09-07T16:39:01.753Z,1.70
2022-09-07T16:41:40.107Z,1.70
2022-09-07T16:44:11.553Z,1.60
2022-09-07T16:46:42.482Z,1.60
2022-09-07T16:49:15.449Z,1.80
2022-09-07T16:51:46.763Z,1.60
2022-09-07T16:54:18.268Z,1.70
2022-09-07T16:56:49.505Z,1.60
2022-09-07T16:59:26.812Z,1.50
2022-09-07T17:01:57.631Z,1.50
2022-09-07T17:04:29.150Z,2.20
2022-09-07T17:07:00.978Z,2.10
2022-09-07T17:09:32.007Z,1.90
2022-09-07T17:12:03.225Z,1.90
2022-09-07T17:14:35.388Z,2.10
2022-09-07T17:17:06.639Z,2.00
2022-09-07T17:19:37.909Z,2.30
2022-09-07T17:22:09.203Z,2.10
2022-09-07T17:24:42.424Z,2.20
2022-09-07T17:27:13.931Z,2.30
2022-09-07T17:29:45.337Z,2.10
2022-09-07T17:32:25.988Z,2.50
2022-09-07T17:34:58.155Z,2.60
2022-09-07T17:37:29.517Z,3.00
2022-09-07T17:40:05.418Z,2.70
2022-09-07T17:45:36.798Z,2.80
2022-09-07T17:48:09.289Z,3.10
2022-09-07T17:50:40.996Z,2.70
2022-09-07T17:53:12.086Z,2.60
2022-09-07T17:55:48.001Z,2.60
2022-09-07T17:58:19.935Z,2.80
2022-09-07T18:00:51.496Z,3.50
2022-09-07T18:03:23.046Z,3.00
2022-09-07T18:05:58.074Z,3.90
2022-09-07T18:14:01.903Z,3.40
2022-09-07T18:16:35.912Z,4.00
2022-09-07T18:19:10.096Z,3.20
2022-09-07T18:21:43.239Z,3.10
2022-09-07T18:24:18.430Z,3.00
2022-09-07T18:26:53.655Z,3.30
2022-09-07T18:29:33.683Z,2.90
2022-09-07T18:32:09.863Z,2.90
2022-09-07T18:34:42.652Z,3.00
2022-09-07T18:37:16.459Z,3.80
2022-09-07T18:39:49.100Z,3.10
2022-09-07T18:42:29.246Z,2.80
2022-09-07T18:47:55.126Z,3.30
2022-09-07T18:50:31.826Z,3.00
2022-09-07T18:53:15.904Z,4.60
2022-09-07T18:55:50.895Z,3.10
2022-09-07T18:58:22.098Z,3.00
2022-09-07T19:00:58.050Z,2.70
2022-09-07T19:03:29.811Z,3.50
2022-09-07T19:06:03.952Z,3.20
2022-09-07T19:08:38.074Z,4.30
2022-09-07T19:11:11.145Z,3.20
2022-09-07T19:13:46.113Z,3.20
2022-09-07T19:16:19.492Z,3.30
2022-09-07T19:18:53.048Z,3.50
2022-09-07T19:21:27.328Z,3.10
2022-09-07T19:24:03.414Z,3.20
2022-09-07T19:26:40.440Z,2.80
2022-09-07T19:29:16.395Z,3.40
2022-09-07T19:32:04.437Z,3.00
2022-09-07T19:34:37.330Z,3.30
2022-09-07T19:37:10.438Z,3.30
2022-09-07T19:39:41.842Z,4.00
2022-09-07T19:42:15.684Z,2.90
2022-09-07T19:44:47.267Z,3.50
2022-09-07T19:47:18.643Z,3.10
2022-09-07T19:49:49.859Z,3.10
2022-09-07T19:52:20.864Z,3.30
2022-09-07T19:54:52.549Z,3.40
2022-09-07T19:57:24.061Z,3.10
2022-09-07T19:59:58.762Z,3.80
2022-09-07T20:02:32.643Z,3.50
2022-09-07T20:05:03.889Z,3.90
2022-09-07T20:07:35.447Z,3.10
2022-09-07T20:10:07.712Z,3.40
2022-09-07T20:12:42.887Z,2.90
2022-09-07T20:17:47.439Z,3.00
2022-09-07T20:20:18.976Z,3.20
2022-09-07T20:22:51.457Z,2.50
2022-09-07T20:25:24.736Z,2.70
2022-09-07T20:27:56.002Z,2.60
2022-09-07T20:30:27.566Z,3.10
2022-09-07T20:32:58.577Z,2.90
2022-09-07T20:35:29.809Z,3.20
2022-09-07T20:38:03.469Z,2.40
2022-09-07T20:40:34.339Z,3.60
2022-09-07T20:43:05.690Z,5.10
2022-09-07T20:45:38.933Z,3.00
2022-09-07T20:48:09.851Z,3.80
2022-09-07T20:50:40.968Z,3.20
2022-09-07T20:53:11.827Z,3.30
2022-09-07T20:55:42.765Z,3.10
2022-09-07T20:58:13.628Z,3.60
2022-09-07T21:00:44.525Z,3.10
2022-09-07T21:03:15.349Z,3.00
2022-09-07T21:05:46.323Z,3.90
2022-09-07T21:08:17.577Z,3.00
2022-09-07T21:10:49.514Z,3.60
2022-09-07T21:13:20.386Z,3.60
2022-09-07T21:15:51.332Z,3.20
2022-09-07T21:18:22.232Z,4.00
2022-09-07T21:21:18.760Z,3.00
2022-09-07T21:23:50.341Z,3.20
2022-09-07T21:26:24.517Z,3.20
2022-09-07T21:29:00.204Z,2.80
2022-09-07T21:31:32.655Z,3.00
2022-09-07T21:34:04.327Z,3.40
2022-09-07T21:36:35.187Z,2.60
2022-09-07T21:39:08.155Z,3.20
2022-09-07T21:41:41.590Z,3.10
2022-09-07T21:44:14.930Z,2.60
2022-09-07T21:46:46.290Z,3.10
2022-09-07T21:49:17.170Z,2.40
2022-09-07T21:51:47.973Z,3.50
2022-09-07T21:54:18.797Z,3.20
2022-09-07T21:56:50.455Z,3.10
2022-09-07T21:59:21.425Z,2.90
2022-09-07T22:01:53.040Z,3.00
2022-09-07T22:04:23.886Z,2.80
2022-09-07T22:06:54.752Z,2.90
2022-09-07T22:09:25.625Z,3.20
2022-09-07T22:11:56.453Z,3.10
2022-09-07T22:14:27.370Z,3.00
2022-09-07T22:16:58.203Z,3.10
2022-09-07T22:19:29.019Z,3.00
2022-09-07T22:21:59.855Z,3.30
2022-09-07T22:24:31.030Z,2.90
2022-09-07T22:27:01.870Z,2.60
2022-09-07T22:29:32.784Z,3.30
2022-09-07T22:32:03.956Z,3.30
2022-09-07T22:34:34.822Z,4.40
2022-09-07T22:37:06.282Z,3.40
2022-09-07T22:39:37.161Z,3.40
2022-09-07T22:42:08.457Z,3.00
2022-09-07T22:44:39.679Z,3.40
2022-09-07T22:47:14.498Z,3.60
2022-09-07T22:49:45.382Z,3.60
2022-09-07T22:52:16.238Z,3.60
2022-09-07T22:54:47.087Z,3.50
2022-09-07T22:57:19.013Z,3.90
2022-09-07T22:59:49.908Z,2.90
2022-09-07T23:02:20.756Z,3.50
2022-09-07T23:04:51.765Z,4.50
2022-09-07T23:07:22.770Z,3.00
2022-09-07T23:09:53.569Z,3.60
2022-09-07T23:12:24.447Z,3.00
2022-09-07T23:14:55.237Z,3.70
2022-09-07T23:17:26.072Z,3.70
2022-09-07T23:19:56.954Z,3.00
2022-09-07T23:22:27.866Z,5.50
2022-09-07T23:24:58.662Z,3.60
2022-09-07T23:27:29.465Z,3.40
2022-09-07T23:30:00.387Z,3.20
2022-09-07T23:32:31.267Z,3.00
2022-09-07T23:35:02.794Z,3.40
2022-09-07T23:37:34.569Z,3.90
2022-09-07T23:40:06.671Z,3.40
2022-09-07T23:42:37.568Z,3.60
2022-09-07T23:45:09.939Z,3.10
2022-09-07T23:47:41.115Z,3.60
2022-09-07T23:50:12.984Z,3.60
2022-09-07T23:52:44.015Z,3.50
2022-09-07T23:55:15.187Z,4.20
2022-09-07T23:57:46.007Z,3.70
